createdAt,value
2022-08-03T00:02:13.188Z,65.85
2022-08-03T00:04:35.222Z,65.85
2022-08-03T00:06:57.027Z,65.92
2022-08-03T00:09:18.969Z,66.11
2022-08-03T00:11:40.788Z,66.22
2022-08-03T00:14:04.527Z,66.13
2022-08-03T00:16:26.426Z,66.03
2022-08-03T00:18:48.325Z,66.25
2022-08-03T00:21:10.407Z,66.40
2022-08-03T00:23:52.096Z,66.45
2022-08-03T00:26:14.778Z,66.49
2022-08-03T00:28:36.593Z,66.57
2022-08-03T00:30:58.398Z,66.75
2022-08-03T00:33:20.259Z,66.82
2022-08-03T00:35:50.311Z,67.05
2022-08-03T00:38:13.013Z,67.05
2022-08-03T00:40:35.339Z,67.15
2022-08-03T00:43:04.721Z,67.01
2022-08-03T00:45:34.346Z,67.21
2022-08-03T00:47:57.052Z,67.29
2022-08-03T00:50:22.880Z,67.38
2022-08-03T00:52:45.603Z,67.50
2022-08-03T00:55:08.043Z,67.62
2022-08-03T00:57:32.625Z,67.65
2022-08-03T00:59:54.687Z,67.69
2022-08-03T01:02:16.871Z,67.76
2022-08-03T01:04:38.866Z,68.03
2022-08-03T01:07:21.872Z,67.90
2022-08-03T01:10:17.440Z,68.07
2022-08-03T01:12:48.712Z,68.58
2022-08-03T01:15:29.568Z,68.44
2022-08-03T01:18:18.666Z,68.71
2022-08-03T01:20:47.463Z,68.56
2022-08-03T01:23:57.174Z,68.64
2022-08-03T01:27:05.494Z,68.87
2022-08-03T01:30:07.639Z,69.12
2022-08-03T01:33:03.497Z,69.21
2022-08-03T01:35:38.303Z,69.58
2022-08-03T01:38:07.273Z,69.75
2022-08-03T01:40:34.416Z,69.52
2022-08-03T01:42:59.622Z,69.70
2022-08-03T01:45:22.882Z,69.76
2022-08-03T01:47:50.117Z,69.74
2022-08-03T01:50:14.948Z,69.65
2022-08-03T01:52:42.277Z,69.58
2022-08-03T01:55:07.195Z,69.53
2022-08-03T01:57:30.566Z,69.82
2022-08-03T01:59:55.947Z,69.86
2022-08-03T02:02:34.199Z,70.22
2022-08-03T02:05:00.459Z,70.45
2022-08-03T02:07:26.599Z,70.52
2022-08-03T02:09:52.765Z,70.73
2022-08-03T02:12:17.667Z,70.74
2022-08-03T02:14:43.678Z,70.65
2022-08-03T02:17:08.400Z,70.68
2022-08-03T02:19:35.723Z,70.63
2022-08-03T02:22:01.280Z,70.69
2022-08-03T02:24:24.183Z,70.74
2022-08-03T02:26:49.222Z,70.85
2022-08-03T02:29:21.567Z,70.89
2022-08-03T02:32:04.505Z,70.81
2022-08-03T02:34:29.811Z,70.65
2022-08-03T02:36:54.269Z,70.90
2022-08-03T02:39:20.777Z,71.02
2022-08-03T02:41:50.151Z,71.26
2022-08-03T02:44:14.893Z,71.31
2022-08-03T02:46:43.131Z,71.32
2022-08-03T02:49:40.595Z,71.52
2022-08-03T02:51:53.269Z,71.53
2022-08-03T02:54:19.911Z,71.60
2022-08-03T02:56:43.294Z,71.62
2022-08-03T02:59:07.834Z,71.69
2022-08-03T03:01:31.461Z,71.82
2022-08-03T03:03:57.450Z,71.69
2022-08-03T03:06:21.251Z,71.69
2022-08-03T03:08:47.264Z,71.95
2022-08-03T03:11:11.251Z,72.05
2022-08-03T03:13:34.105Z,71.92
2022-08-03T03:16:01.495Z,71.88
2022-08-03T03:18:25.399Z,71.83
2022-08-03T03:20:50.386Z,71.70
2022-08-03T03:23:14.688Z,71.91
2022-08-03T03:25:37.844Z,71.98
2022-08-03T03:28:02.926Z,72.12
2022-08-03T03:30:26.404Z,72.18
2022-08-03T03:32:48.982Z,72.19
2022-08-03T03:35:13.699Z,72.33
2022-08-03T03:37:35.970Z,72.26
2022-08-03T03:39:58.204Z,72.28
2022-08-03T03:42:20.876Z,72.32
2022-08-03T03:44:42.798Z,72.46
2022-08-03T03:47:04.886Z,72.50
2022-08-03T03:49:27.693Z,72.69
2022-08-03T03:51:54.920Z,72.79
2022-08-03T03:54:16.883Z,72.65
2022-08-03T03:56:38.725Z,72.65
2022-08-03T03:59:00.656Z,72.68
2022-08-03T04:01:23.273Z,73.00
2022-08-03T04:03:45.728Z,73.06
2022-08-03T04:06:26.666Z,72.82
2022-08-03T04:09:06.994Z,72.87
2022-08-03T04:11:38.320Z,73.34
2022-08-03T04:14:17.919Z,73.32
2022-08-03T04:16:47.138Z,73.73
2022-08-03T04:19:21.180Z,73.42
2022-08-03T04:21:51.897Z,73.66
2022-08-03T04:24:18.186Z,73.54
2022-08-03T04:26:43.261Z,73.42
2022-08-03T04:29:06.618Z,73.38
2022-08-03T04:31:30.656Z,73.44
2022-08-03T04:33:55.627Z,73.31
2022-08-03T04:36:23.661Z,73.45
2022-08-03T04:39:02.668Z,73.38
2022-08-03T04:41:27.688Z,73.41
2022-08-03T04:43:53.814Z,73.08
2022-08-03T04:46:16.453Z,73.21
2022-08-03T04:48:42.363Z,73.43
2022-08-03T04:51:06.672Z,73.38
2022-08-03T04:53:28.699Z,73.66
2022-08-03T04:55:50.592Z,73.62
2022-08-03T04:58:12.678Z,73.56
2022-08-03T05:00:34.939Z,73.73
2022-08-03T05:02:56.965Z,73.64
2022-08-03T05:05:18.982Z,73.88
2022-08-03T05:07:41.081Z,73.71
2022-08-03T05:10:14.846Z,73.65
2022-08-03T05:12:37.901Z,73.65
2022-08-03T05:15:00.844Z,74.29
2022-08-03T05:17:22.613Z,74.34
2022-08-03T05:19:44.449Z,74.20
2022-08-03T05:22:06.256Z,74.48
2022-08-03T05:24:28.042Z,74.46
2022-08-03T05:26:49.858Z,74.57
2022-08-03T05:29:11.695Z,74.35
2022-08-03T05:31:33.536Z,74.53
2022-08-03T05:33:57.102Z,74.30
2022-08-03T05:36:18.916Z,74.16
2022-08-03T05:38:40.717Z,74.28
2022-08-03T05:41:22.507Z,74.00
2022-08-03T05:43:46.957Z,73.81
2022-08-03T05:46:12.165Z,73.46
2022-08-03T05:48:34.897Z,73.45
2022-08-03T05:50:57.168Z,73.06
2022-08-03T05:53:19.195Z,72.98
2022-08-03T05:55:40.973Z,72.66
2022-08-03T05:58:03.903Z,72.30
2022-08-03T06:00:25.816Z,72.24
2022-08-03T06:02:47.780Z,72.04
2022-08-03T06:05:10.903Z,72.17
2022-08-03T06:07:33.358Z,71.64
2022-08-03T06:10:35.272Z,71.40
2022-08-03T06:12:37.353Z,70.92
2022-08-03T06:14:59.200Z,70.77
2022-08-03T06:17:21.005Z,70.68
2022-08-03T06:19:42.875Z,70.39
2022-08-03T06:22:05.173Z,70.54
2022-08-03T06:24:27.266Z,70.22
2022-08-03T06:26:51.616Z,70.02
2022-08-03T06:29:13.428Z,69.67
2022-08-03T06:31:35.236Z,69.00
2022-08-03T06:34:32.155Z,68.62
2022-08-03T06:36:39.449Z,68.42
2022-08-03T06:39:01.386Z,67.92
2022-08-03T06:41:23.251Z,67.77
2022-08-03T06:44:03.444Z,67.56
2022-08-03T06:46:26.174Z,67.18
2022-08-03T06:48:48.364Z,66.73
2022-08-03T06:51:10.644Z,66.25
2022-08-03T06:53:32.639Z,65.44
2022-08-03T06:55:55.337Z,65.31
2022-08-03T06:58:17.252Z,65.15
2022-08-03T07:00:39.180Z,64.71
2022-08-03T07:03:01.021Z,63.66
2022-08-03T07:05:23.110Z,62.73
2022-08-03T07:07:44.955Z,62.94
2022-08-03T07:10:08.896Z,62.77
2022-08-03T07:12:32.362Z,62.74
2022-08-03T07:15:00.375Z,62.66
2022-08-03T07:17:23.530Z,61.66
2022-08-03T07:19:45.454Z,60.77
2022-08-03T07:22:08.785Z,60.22
2022-08-03T07:24:30.711Z,59.95
2022-08-03T07:26:52.760Z,59.66
2022-08-03T07:29:15.349Z,59.58
2022-08-03T07:31:38.553Z,60.03
2022-08-03T07:34:00.341Z,60.00
2022-08-03T07:36:23.222Z,59.64
2022-08-03T07:38:45.012Z,58.52
2022-08-03T07:41:06.968Z,58.27
2022-08-03T07:43:28.792Z,57.81
2022-08-03T07:45:50.742Z,57.51
2022-08-03T07:48:12.889Z,56.95
2022-08-03T07:50:34.722Z,57.21
2022-08-03T07:52:57.908Z,56.45
2022-08-03T07:55:24.049Z,56.27
2022-08-03T07:57:46.286Z,56.49
2022-08-03T08:00:17.070Z,56.34
2022-08-03T08:02:39.077Z,56.47
2022-08-03T08:05:05.333Z,56.63
2022-08-03T08:07:27.625Z,56.52
2022-08-03T08:09:49.450Z,55.82
2022-08-03T08:12:15.131Z,54.70
2022-08-03T08:14:37.718Z,54.69
2022-08-03T08:17:00.293Z,53.96
2022-08-03T08:19:24.376Z,53.98
2022-08-03T08:21:53.872Z,53.66
2022-08-03T08:24:24.997Z,53.82
2022-08-03T08:26:46.969Z,53.73
2022-08-03T08:29:09.177Z,53.47
2022-08-03T08:31:31.069Z,52.85
2022-08-03T08:34:08.213Z,52.29
2022-08-03T08:36:30.017Z,52.99
2022-08-03T08:38:52.169Z,52.66
2022-08-03T08:41:15.280Z,51.91
2022-08-03T08:43:37.347Z,52.29
2022-08-03T08:46:00.146Z,51.07
2022-08-03T08:48:25.974Z,50.27
2022-08-03T08:50:52.353Z,50.23
2022-08-03T08:53:18.338Z,49.59
2022-08-03T08:55:59.019Z,48.95
2022-08-03T08:58:23.435Z,49.17
2022-08-03T09:00:45.797Z,48.59
2022-08-03T09:03:07.727Z,48.59
2022-08-03T09:05:55.012Z,48.02
2022-08-03T09:08:14.995Z,47.57
2022-08-03T09:10:36.912Z,47.04
2022-08-03T09:13:00.009Z,46.74
2022-08-03T09:15:33.136Z,46.92
2022-08-03T09:17:58.327Z,47.21
2022-08-03T09:20:22.243Z,46.09
2022-08-03T09:23:24.691Z,46.05
2022-08-03T09:25:47.239Z,45.69
2022-08-03T09:28:52.589Z,45.32
2022-08-03T09:31:00.616Z,44.85
2022-08-03T09:33:23.147Z,44.86
2022-08-03T09:35:57.489Z,44.64
2022-08-03T09:38:26.376Z,43.90
2022-08-03T09:40:48.395Z,44.29
2022-08-03T09:43:12.724Z,43.68
2022-08-03T09:45:36.737Z,43.93
2022-08-03T09:48:26.185Z,43.43
2022-08-03T09:50:51.072Z,43.51
2022-08-03T09:53:22.406Z,43.30
2022-08-03T09:56:34.856Z,42.26
2022-08-03T09:58:48.100Z,41.13
2022-08-03T10:01:23.631Z,42.48
2022-08-03T10:04:03.153Z,42.33
2022-08-03T10:06:29.001Z,42.16
2022-08-03T10:09:13.940Z,41.66
2022-08-03T10:11:41.806Z,41.18
2022-08-03T10:14:06.657Z,41.02
2022-08-03T10:16:38.006Z,40.70
2022-08-03T10:19:00.083Z,40.80
2022-08-03T10:21:22.558Z,40.29
2022-08-03T10:23:44.742Z,40.64
2022-08-03T10:26:12.241Z,40.86
2022-08-03T10:28:49.076Z,40.20
2022-08-03T10:31:14.072Z,40.24
2022-08-03T10:33:51.532Z,40.30
2022-08-03T10:36:16.887Z,40.50
2022-08-03T10:38:52.496Z,39.62
2022-08-03T10:41:20.472Z,38.79
2022-08-03T10:44:03.083Z,39.86
2022-08-03T10:46:27.579Z,39.73
2022-08-03T10:48:52.623Z,40.03
2022-08-03T10:51:15.658Z,40.23
2022-08-03T10:53:51.528Z,39.89
2022-08-03T10:56:58.627Z,39.38
2022-08-03T10:59:48.429Z,39.16
2022-08-03T11:02:10.277Z,39.26
2022-08-03T11:04:32.119Z,39.14
2022-08-03T11:07:16.600Z,39.35
2022-08-03T11:09:49.971Z,37.77
2022-08-03T11:12:32.516Z,36.54
2022-08-03T11:14:57.096Z,37.50
2022-08-03T11:17:19.772Z,37.24
2022-08-03T11:19:57.390Z,36.57
2022-08-03T11:22:22.238Z,36.44
2022-08-03T11:24:46.444Z,36.24
2022-08-03T11:27:14.804Z,37.16
2022-08-03T11:29:36.853Z,37.20
2022-08-03T11:31:58.778Z,37.45
2022-08-03T11:34:20.810Z,37.81
2022-08-03T11:37:28.720Z,38.34
2022-08-03T11:39:54.797Z,37.36
2022-08-03T11:42:23.408Z,36.17
2022-08-03T11:44:47.614Z,35.36
2022-08-03T11:47:17.745Z,35.85
2022-08-03T11:49:40.735Z,36.07
2022-08-03T11:52:02.904Z,36.63
2022-08-03T11:54:25.819Z,36.40
2022-08-03T11:56:51.014Z,36.35
2022-08-03T11:59:20.154Z,35.90
2022-08-03T12:01:42.860Z,35.78
2022-08-03T12:04:05.915Z,35.49
2022-08-03T12:06:27.752Z,34.15
2022-08-03T12:08:49.548Z,34.76
2022-08-03T12:11:15.351Z,34.51
2022-08-03T12:14:05.773Z,34.11
2022-08-03T12:16:25.577Z,34.60
2022-08-03T12:19:01.579Z,34.08
2022-08-03T12:21:24.751Z,34.44
2022-08-03T12:23:46.608Z,35.03
2022-08-03T12:26:10.391Z,34.79
2022-08-03T12:28:37.885Z,34.27
2022-08-03T12:31:07.906Z,33.19
2022-08-03T12:33:30.324Z,33.68
2022-08-03T12:36:11.086Z,33.73
2022-08-03T12:38:37.543Z,33.81
2022-08-03T12:41:16.712Z,33.50
2022-08-03T12:43:39.868Z,32.80
2022-08-03T12:46:14.889Z,33.24
2022-08-03T12:48:36.945Z,34.19
2022-08-03T12:51:11.794Z,34.19
2022-08-03T12:53:33.589Z,33.35
2022-08-03T12:56:05.767Z,33.73
2022-08-03T12:58:36.352Z,33.85
2022-08-03T13:00:58.241Z,33.78
2022-08-03T13:03:39.008Z,33.39
2022-08-03T13:06:02.183Z,32.74
2022-08-03T13:08:25.880Z,32.59
2022-08-03T13:10:48.565Z,33.09
2022-08-03T13:13:10.823Z,32.78
2022-08-03T13:15:33.531Z,32.10
2022-08-03T13:18:00.622Z,32.36
2022-08-03T13:20:23.976Z,31.77
2022-08-03T13:22:49.028Z,32.06
2022-08-03T13:25:10.814Z,31.63
2022-08-03T13:28:03.487Z,31.51
2022-08-03T13:30:27.526Z,32.70
2022-08-03T13:32:52.145Z,32.48
2022-08-03T13:35:16.619Z,31.92
2022-08-03T13:37:38.971Z,30.60
2022-08-03T13:40:05.519Z,32.24
2022-08-03T13:42:30.683Z,31.63
2022-08-03T13:44:52.614Z,31.81
2022-08-03T13:47:14.438Z,32.07
2022-08-03T13:49:37.390Z,32.57
2022-08-03T13:51:59.402Z,32.69
2022-08-03T13:54:21.247Z,32.15
2022-08-03T13:56:48.820Z,31.55
2022-08-03T13:59:11.070Z,31.42
2022-08-03T14:01:54.192Z,31.87
2022-08-03T14:04:21.817Z,32.31
2022-08-03T14:06:45.912Z,32.36
2022-08-03T14:09:07.908Z,32.66
2022-08-03T14:12:07.570Z,32.42
2022-08-03T14:14:12.685Z,31.93
2022-08-03T14:16:35.896Z,31.83
2022-08-03T14:18:57.779Z,31.65
2022-08-03T14:21:20.473Z,31.80
2022-08-03T14:23:42.352Z,31.24
2022-08-03T14:26:08.506Z,31.22
2022-08-03T14:28:30.289Z,31.60
2022-08-03T14:30:54.492Z,31.44
2022-08-03T14:33:16.479Z,32.09
2022-08-03T14:35:38.683Z,30.89
2022-08-03T14:38:00.515Z,31.84
2022-08-03T14:40:22.523Z,31.33
2022-08-03T14:42:44.573Z,31.83
2022-08-03T14:45:09.631Z,31.72
2022-08-03T14:50:30.653Z,31.33
2022-08-03T14:50:31.052Z,32.25
2022-08-03T14:53:05.171Z,32.77
2022-08-03T14:55:27.405Z,32.51
2022-08-03T14:58:02.897Z,31.42
2022-08-03T15:00:24.826Z,32.28
2022-08-03T15:02:46.703Z,32.11
2022-08-03T15:05:10.791Z,32.76
2022-08-03T15:07:32.791Z,33.04
2022-08-03T15:09:55.143Z,32.94
2022-08-03T15:12:17.014Z,32.58
2022-08-03T15:14:39.114Z,32.86
2022-08-03T15:17:01.587Z,32.66
2022-08-03T15:20:01.077Z,32.63
2022-08-03T15:22:05.366Z,32.97
2022-08-03T15:24:31.020Z,32.79
2022-08-03T15:26:53.378Z,32.15
2022-08-03T15:30:05.082Z,31.85
2022-08-03T15:31:57.271Z,32.08
2022-08-03T15:34:19.085Z,32.13
2022-08-03T15:36:40.985Z,32.31
2022-08-03T15:39:04.570Z,31.86
2022-08-03T15:41:26.553Z,32.16
2022-08-03T15:43:48.390Z,32.60
2022-08-03T15:46:28.837Z,32.63
2022-08-03T15:48:51.501Z,32.14
2022-08-03T15:51:13.699Z,32.62
2022-08-03T15:53:36.721Z,32.31
2022-08-03T15:55:59.387Z,32.38
2022-08-03T15:59:10.240Z,31.37
2022-08-03T16:01:06.365Z,31.03
2022-08-03T16:03:34.205Z,30.82
2022-08-03T16:05:56.065Z,31.17
2022-08-03T16:08:17.840Z,31.72
2022-08-03T16:10:40.627Z,32.14
2022-08-03T16:13:02.564Z,32.36
2022-08-03T16:15:24.833Z,32.41
2022-08-03T16:17:46.691Z,32.08
2022-08-03T16:20:30.949Z,32.65
2022-08-03T16:22:53.129Z,32.58
2022-08-03T16:25:17.421Z,32.66
2022-08-03T16:28:03.263Z,32.56
2022-08-03T16:30:21.647Z,32.20
2022-08-03T16:32:45.523Z,32.60
2022-08-03T16:35:08.508Z,32.43
2022-08-03T16:37:39.235Z,32.56
2022-08-03T16:40:02.015Z,31.74
2022-08-03T16:42:23.893Z,32.48
2022-08-03T16:44:45.696Z,32.57
2022-08-03T16:47:07.513Z,32.18
2022-08-03T16:49:54.657Z,32.28
2022-08-03T16:52:18.238Z,32.30
2022-08-03T16:54:40.783Z,32.51
2022-08-03T16:57:02.808Z,31.96
2022-08-03T16:59:36.025Z,32.16
2022-08-03T17:02:00.146Z,32.46
2022-08-03T17:04:22.098Z,32.78
2022-08-03T17:06:45.389Z,32.65
2022-08-03T17:09:18.924Z,32.44
2022-08-03T17:11:47.151Z,32.44
2022-08-03T17:14:12.227Z,32.69
2022-08-03T17:16:34.548Z,33.51
2022-08-03T17:19:05.738Z,34.11
2022-08-03T17:21:32.419Z,35.37
2022-08-03T17:24:41.021Z,35.48
2022-08-03T17:28:42.395Z,36.29
2022-08-03T17:30:00.886Z,36.77
2022-08-03T17:32:26.244Z,36.90
2022-08-03T17:34:49.239Z,37.40
2022-08-03T17:37:27.230Z,37.61
2022-08-03T17:39:59.065Z,37.93
2022-08-03T17:42:30.381Z,38.08
2022-08-03T17:44:56.260Z,38.34
2022-08-03T17:47:19.211Z,38.60
2022-08-03T17:49:43.445Z,38.58
2022-08-03T17:52:19.701Z,38.26
2022-08-03T17:55:56.581Z,39.03
2022-08-03T17:58:03.297Z,38.85
2022-08-03T18:00:45.359Z,39.12
2022-08-03T18:03:58.245Z,39.58
2022-08-03T18:06:28.843Z,39.59
2022-08-03T18:08:55.368Z,39.45
2022-08-03T18:11:22.820Z,39.34
2022-08-03T18:14:16.559Z,39.38
2022-08-03T18:16:52.277Z,39.60
2022-08-03T18:19:15.860Z,39.72
2022-08-03T18:22:03.382Z,39.78
2022-08-03T18:24:25.787Z,40.04
2022-08-03T18:26:50.032Z,40.21
2022-08-03T18:29:13.875Z,40.39
2022-08-03T18:32:02.822Z,40.29
2022-08-03T18:34:32.839Z,40.02
2022-08-03T18:37:07.291Z,39.85
2022-08-03T18:39:31.779Z,39.94
2022-08-03T18:41:54.428Z,40.14
2022-08-03T18:44:53.044Z,40.72
2022-08-03T18:47:16.574Z,40.92
2022-08-03T18:50:00.811Z,41.14
2022-08-03T18:52:42.069Z,41.35
2022-08-03T18:55:33.751Z,41.88
2022-08-03T18:58:17.934Z,42.83
2022-08-03T19:01:58.401Z,43.69
2022-08-03T19:04:49.685Z,43.82
2022-08-03T19:07:22.154Z,44.27
2022-08-03T19:09:55.383Z,44.50
2022-08-03T19:12:30.761Z,44.57
2022-08-03T19:15:06.248Z,45.12
2022-08-03T19:17:41.831Z,45.17
2022-08-03T19:20:06.101Z,45.42
2022-08-03T19:22:28.305Z,45.82
2022-08-03T19:24:55.163Z,45.93
2022-08-03T19:27:20.295Z,46.31
2022-08-03T19:29:58.906Z,46.38
2022-08-03T19:32:24.487Z,46.51
2022-08-03T19:34:51.310Z,46.64
2022-08-03T19:37:15.452Z,47.28
2022-08-03T19:39:37.430Z,47.18
2022-08-03T19:42:18.477Z,47.92
2022-08-03T19:44:51.229Z,47.59
2022-08-03T19:47:33.832Z,47.36
2022-08-03T19:50:05.909Z,47.90
2022-08-03T19:52:39.338Z,47.94
2022-08-03T19:55:09.710Z,48.84
2022-08-03T19:57:37.753Z,49.21
2022-08-03T20:00:03.540Z,49.17
2022-08-03T20:02:29.645Z,49.70
2022-08-03T20:04:51.842Z,49.54
2022-08-03T20:07:20.626Z,49.91
2022-08-03T20:09:46.380Z,50.17
2022-08-03T20:12:16.804Z,50.24
2022-08-03T20:14:40.448Z,50.23
2022-08-03T20:17:04.297Z,50.53
2022-08-03T20:19:32.607Z,50.79
2022-08-03T20:21:54.911Z,51.02
2022-08-03T20:24:27.019Z,51.05
2022-08-03T20:26:54.520Z,51.38
2022-08-03T20:29:42.728Z,51.32
2022-08-03T20:32:10.231Z,51.59
2022-08-03T20:34:32.168Z,51.75
2022-08-03T20:36:54.205Z,52.11
2022-08-03T20:39:16.191Z,52.17
2022-08-03T20:41:38.250Z,52.34
2022-08-03T20:44:01.005Z,52.49
2022-08-03T20:46:32.187Z,52.54
2022-08-03T20:49:03.852Z,52.82
2022-08-03T20:51:49.602Z,52.84
2022-08-03T20:54:22.583Z,53.05
2022-08-03T20:56:52.756Z,53.57
2022-08-03T20:59:15.322Z,53.42
2022-08-03T21:01:37.979Z,53.67
2022-08-03T21:04:00.337Z,53.76
2022-08-03T21:06:37.493Z,54.02
2022-08-03T21:09:06.798Z,54.36
2022-08-03T21:11:44.363Z,54.44
2022-08-03T21:14:39.332Z,54.63
2022-08-03T21:17:14.069Z,54.65
2022-08-03T21:19:52.103Z,55.11
2022-08-03T21:22:22.982Z,55.11
2022-08-03T21:24:49.446Z,55.04
2022-08-03T21:27:14.979Z,55.15
2022-08-03T21:29:53.230Z,55.39
2022-08-03T21:32:32.911Z,55.58
2022-08-03T21:34:57.192Z,56.00
2022-08-03T21:37:18.986Z,55.92
2022-08-03T21:39:50.566Z,56.21
2022-08-03T21:42:13.876Z,56.37
2022-08-03T21:44:35.689Z,56.90
2022-08-03T21:47:00.935Z,57.21
2022-08-03T21:50:05.661Z,57.41
2022-08-03T21:52:09.397Z,57.49
2022-08-03T21:54:41.421Z,57.26
2022-08-03T21:57:12.999Z,57.51
2022-08-03T21:59:41.435Z,57.48
2022-08-03T22:02:04.442Z,57.83
2022-08-03T22:04:38.060Z,57.90
2022-08-03T22:07:09.648Z,58.50
2022-08-03T22:09:34.189Z,58.68
2022-08-03T22:11:56.170Z,59.06
2022-08-03T22:14:18.139Z,59.26
2022-08-03T22:16:41.267Z,59.27
2022-08-03T22:19:03.249Z,59.49
2022-08-03T22:21:36.386Z,59.64
2022-08-03T22:24:00.553Z,59.35
2022-08-03T22:26:34.963Z,59.68
2022-08-03T22:28:59.690Z,59.58
2022-08-03T22:31:37.613Z,59.59
2022-08-03T22:34:03.940Z,59.83
2022-08-03T22:36:26.152Z,59.89
2022-08-03T22:38:48.568Z,59.54
2022-08-03T22:41:10.824Z,59.81
2022-08-03T22:43:36.926Z,59.84
2022-08-03T22:46:09.160Z,60.01
2022-08-03T22:48:40.813Z,59.83
2022-08-03T22:51:05.435Z,59.92
2022-08-03T22:53:27.988Z,59.99
2022-08-03T22:55:51.890Z,60.26
2022-08-03T22:58:15.995Z,60.26
2022-08-03T23:00:47.513Z,60.53
2022-08-03T23:03:20.149Z,60.45
2022-08-03T23:06:01.377Z,60.44
2022-08-03T23:08:27.548Z,60.63
2022-08-03T23:10:52.430Z,60.41
2022-08-03T23:13:19.612Z,60.94
2022-08-03T23:15:42.526Z,60.88
2022-08-03T23:18:06.423Z,60.70
2022-08-03T23:20:30.048Z,60.75
2022-08-03T23:22:54.449Z,60.65
2022-08-03T23:25:17.432Z,60.65
2022-08-03T23:27:42.226Z,60.74
2022-08-03T23:30:04.496Z,60.80
2022-08-03T23:32:28.902Z,60.55
2022-08-03T23:35:11.123Z,60.66
2022-08-03T23:37:33.425Z,60.76
2022-08-03T23:40:16.100Z,60.59
2022-08-03T23:42:39.466Z,60.95
2022-08-03T23:45:05.982Z,61.10
2022-08-03T23:47:46.477Z,61.22
2022-08-03T23:50:09.553Z,60.98
2022-08-03T23:52:56.835Z,61.27
2022-08-03T23:55:45.798Z,61.46
2022-08-03T23:58:47.345Z,61.20
